sensor_id;sensor_type;location;lat;lon;timestamp;P1;durP1;ratioP1;P2;durP2;ratioP2
12758;SDS011;20944;47.048;15.390;2022-11-15T00:01:14;14.67;;;6.37;;
12758;SDS011;20944;47.048;15.390;2022-11-15T00:03:46;17.33;;;4.83;;
12758;SDS011;20944;47.048;15.390;2022-11-15T00:06:18;14.83;;;5.63;;
12758;SDS011;20944;47.048;15.390;2022-11-15T00:08:46;14.13;;;7.07;;
12758;SDS011;20944;47.048;15.390;2022-11-15T00:11:14;10.20;;;6.10;;
12758;SDS011;20944;47.048;15.390;2022-11-15T00:13:43;9.97;;;5.33;;
12758;SDS011;20944;47.048;15.390;2022-11-15T00:16:11;11.77;;;6.33;;
12758;SDS011;20944;47.048;15.390;2022-11-15T00:18:39;15.63;;;6.33;;
12758;SDS011;20944;47.048;15.390;2022-11-15T00:21:16;11.40;;;6.10;;
12758;SDS011;20944;47.048;15.390;2022-11-15T00:23:45;13.07;;;6.53;;
12758;SDS011;20944;47.048;15.390;2022-11-15T00:26:13;15.03;;;5.40;;
12758;SDS011;20944;47.048;15.390;2022-11-15T00:28:42;13.20;;;6.27;;
12758;SDS011;20944;47.048;15.390;2022-11-15T00:31:12;14.50;;;6.20;;
12758;SDS011;20944;47.048;15.390;2022-11-15T00:33:42;14.30;;;6.90;;
12758;SDS011;20944;47.048;15.390;2022-11-15T00:36:11;7.60;;;4.37;;
12758;SDS011;20944;47.048;15.390;2022-11-15T00:38:41;11.80;;;6.40;;
12758;SDS011;20944;47.048;15.390;2022-11-15T00:41:09;14.07;;;5.73;;
12758;SDS011;20944;47.048;15.390;2022-11-15T00:43:38;18.93;;;6.80;;
12758;SDS011;20944;47.048;15.390;2022-11-15T00:46:10;15.60;;;6.73;;
12758;SDS011;20944;47.048;15.390;2022-11-15T00:48:38;14.00;;;7.83;;
12758;SDS011;20944;47.048;15.390;2022-11-15T00:51:06;11.90;;;5.90;;
12758;SDS011;20944;47.048;15.390;2022-11-15T00:53:35;9.20;;;4.63;;
12758;SDS011;20944;47.048;15.390;2022-11-15T00:56:04;10.60;;;5.17;;
12758;SDS011;20944;47.048;15.390;2022-11-15T00:58:33;15.90;;;7.50;;
12758;SDS011;20944;47.048;15.390;2022-11-15T01:01:05;15.07;;;5.77;;
12758;SDS011;20944;47.048;15.390;2022-11-15T01:03:34;14.10;;;5.93;;
12758;SDS011;20944;47.048;15.390;2022-11-15T01:06:03;10.70;;;5.07;;
12758;SDS011;20944;47.048;15.390;2022-11-15T01:08:32;10.03;;;5.07;;
12758;SDS011;20944;47.048;15.390;2022-11-15T01:11:01;12.30;;;4.83;;
12758;SDS011;20944;47.048;15.390;2022-11-15T01:13:32;14.93;;;5.50;;
12758;SDS011;20944;47.048;15.390;2022-11-15T01:16:05;13.97;;;4.97;;
12758;SDS011;20944;47.048;15.390;2022-11-15T01:18:34;14.40;;;5.03;;
12758;SDS011;20944;47.048;15.390;2022-11-15T01:21:04;10.83;;;5.67;;
12758;SDS011;20944;47.048;15.390;2022-11-15T01:23:34;10.10;;;5.43;;
12758;SDS011;20944;47.048;15.390;2022-11-15T01:26:02;14.47;;;6.77;;
12758;SDS011;20944;47.048;15.390;2022-11-15T01:28:35;7.83;;;3.17;;
12758;SDS011;20944;47.048;15.390;2022-11-15T01:31:05;13.47;;;5.67;;
12758;SDS011;20944;47.048;15.390;2022-11-15T01:33:36;16.77;;;6.53;;
12758;SDS011;20944;47.048;15.390;2022-11-15T01:36:05;9.80;;;4.77;;
12758;SDS011;20944;47.048;15.390;2022-11-15T01:38:34;15.27;;;6.23;;
12758;SDS011;20944;47.048;15.390;2022-11-15T01:41:02;10.00;;;4.73;;
12758;SDS011;20944;47.048;15.390;2022-11-15T01:43:32;13.37;;;5.67;;
12758;SDS011;20944;47.048;15.390;2022-11-15T01:46:04;10.43;;;6.00;;
12758;SDS011;20944;47.048;15.390;2022-11-15T01:48:43;10.43;;;4.47;;
12758;SDS011;20944;47.048;15.390;2022-11-15T01:51:11;9.13;;;4.57;;
12758;SDS011;20944;47.048;15.390;2022-11-15T01:53:42;11.93;;;6.07;;
12758;SDS011;20944;47.048;15.390;2022-11-15T01:56:17;12.13;;;4.90;;
12758;SDS011;20944;47.048;15.390;2022-11-15T01:58:49;9.30;;;5.13;;
12758;SDS011;20944;47.048;15.390;2022-11-15T02:01:19;7.90;;;4.77;;
12758;SDS011;20944;47.048;15.390;2022-11-15T02:03:48;10.93;;;4.83;;
12758;SDS011;20944;47.048;15.390;2022-11-15T02:06:19;17.20;;;5.90;;
12758;SDS011;20944;47.048;15.390;2022-11-15T02:08:49;11.87;;;5.90;;
12758;SDS011;20944;47.048;15.390;2022-11-15T02:11:18;17.23;;;7.53;;
12758;SDS011;20944;47.048;15.390;2022-11-15T02:13:46;9.93;;;4.60;;
12758;SDS011;20944;47.048;15.390;2022-11-15T02:16:18;15.00;;;5.67;;
12758;SDS011;20944;47.048;15.390;2022-11-15T02:18:57;10.33;;;4.90;;
12758;SDS011;20944;47.048;15.390;2022-11-15T02:21:32;12.17;;;6.40;;
12758;SDS011;20944;47.048;15.390;2022-11-15T02:24:16;12.63;;;4.57;;
12758;SDS011;20944;47.048;15.390;2022-11-15T02:30:30;10.63;;;4.37;;
12758;SDS011;20944;47.048;15.390;2022-11-15T02:33:08;9.50;;;3.83;;
12758;SDS011;20944;47.048;15.390;2022-11-15T02:35:48;10.30;;;4.37;;
12758;SDS011;20944;47.048;15.390;2022-11-15T02:38:27;11.47;;;4.37;;
12758;SDS011;20944;47.048;15.390;2022-11-15T02:41:01;12.30;;;4.83;;
12758;SDS011;20944;47.048;15.390;2022-11-15T02:43:35;9.83;;;4.23;;
12758;SDS011;20944;47.048;15.390;2022-11-15T02:46:27;10.10;;;4.90;;
12758;SDS011;20944;47.048;15.390;2022-11-15T02:49:18;10.27;;;5.23;;
12758;SDS011;20944;47.048;15.390;2022-11-15T02:51:47;8.67;;;4.63;;
12758;SDS011;20944;47.048;15.390;2022-11-15T02:54:20;8.80;;;5.50;;
12758;SDS011;20944;47.048;15.390;2022-11-15T02:56:50;16.57;;;6.20;;
12758;SDS011;20944;47.048;15.390;2022-11-15T02:59:32;8.70;;;3.97;;
12758;SDS011;20944;47.048;15.390;2022-11-15T03:02:27;10.07;;;5.33;;
12758;SDS011;20944;47.048;15.390;2022-11-15T03:05:04;11.40;;;4.87;;
12758;SDS011;20944;47.048;15.390;2022-11-15T03:07:43;9.83;;;4.70;;
12758;SDS011;20944;47.048;15.390;2022-11-15T03:10:30;10.80;;;5.03;;
12758;SDS011;20944;47.048;15.390;2022-11-15T03:13:07;12.83;;;5.33;;
12758;SDS011;20944;47.048;15.390;2022-11-15T03:15:44;9.77;;;5.07;;
12758;SDS011;20944;47.048;15.390;2022-11-15T03:18:22;12.17;;;5.33;;
12758;SDS011;20944;47.048;15.390;2022-11-15T03:20:55;9.83;;;4.33;;
12758;SDS011;20944;47.048;15.390;2022-11-15T03:23:26;7.63;;;4.77;;
12758;SDS011;20944;47.048;15.390;2022-11-15T03:25:58;6.50;;;4.23;;
12758;SDS011;20944;47.048;15.390;2022-11-15T03:28:28;14.57;;;4.73;;
12758;SDS011;20944;47.048;15.390;2022-11-15T03:31:02;10.57;;;4.53;;
12758;SDS011;20944;47.048;15.390;2022-11-15T03:33:54;10.43;;;5.07;;
12758;SDS011;20944;47.048;15.390;2022-11-15T03:36:25;11.57;;;4.33;;
12758;SDS011;20944;47.048;15.390;2022-11-15T03:38:55;10.73;;;4.03;;
12758;SDS011;20944;47.048;15.390;2022-11-15T03:41:29;13.73;;;5.60;;
12758;SDS011;20944;47.048;15.390;2022-11-15T03:44:08;7.87;;;3.47;;
12758;SDS011;20944;47.048;15.390;2022-11-15T03:46:42;8.60;;;4.33;;
12758;SDS011;20944;47.048;15.390;2022-11-15T03:49:19;9.63;;;4.97;;
12758;SDS011;20944;47.048;15.390;2022-11-15T03:51:54;9.60;;;4.13;;
12758;SDS011;20944;47.048;15.390;2022-11-15T03:54:24;12.50;;;4.00;;
12758;SDS011;20944;47.048;15.390;2022-11-15T03:56:53;9.60;;;4.77;;
12758;SDS011;20944;47.048;15.390;2022-11-15T03:59:21;9.40;;;5.43;;
12758;SDS011;20944;47.048;15.390;2022-11-15T04:01:49;10.20;;;4.67;;
12758;SDS011;20944;47.048;15.390;2022-11-15T04:04:19;8.67;;;3.43;;
12758;SDS011;20944;47.048;15.390;2022-11-15T04:06:47;9.30;;;5.00;;
12758;SDS011;20944;47.048;15.390;2022-11-15T04:09:15;14.07;;;5.20;;
12758;SDS011;20944;47.048;15.390;2022-11-15T04:11:44;7.80;;;4.03;;
12758;SDS011;20944;47.048;15.390;2022-11-15T04:14:12;8.47;;;4.60;;
12758;SDS011;20944;47.048;15.390;2022-11-15T04:16:40;8.33;;;4.30;;
12758;SDS011;20944;47.048;15.390;2022-11-15T04:19:09;8.20;;;4.70;;
12758;SDS011;20944;47.048;15.390;2022-11-15T04:21:56;10.90;;;4.70;;
12758;SDS011;20944;47.048;15.390;2022-11-15T04:24:42;11.10;;;5.77;;
12758;SDS011;20944;47.048;15.390;2022-11-15T04:27:10;11.60;;;5.13;;
12758;SDS011;20944;47.048;15.390;2022-11-15T04:29:42;11.07;;;4.90;;
12758;SDS011;20944;47.048;15.390;2022-11-15T04:32:10;12.17;;;4.13;;
12758;SDS011;20944;47.048;15.390;2022-11-15T04:34:38;9.20;;;4.30;;
12758;SDS011;20944;47.048;15.390;2022-11-15T04:37:08;11.07;;;4.53;;
12758;SDS011;20944;47.048;15.390;2022-11-15T04:39:38;8.27;;;3.83;;
12758;SDS011;20944;47.048;15.390;2022-11-15T04:42:06;13.23;;;5.33;;
12758;SDS011;20944;47.048;15.390;2022-11-15T04:44:35;9.67;;;3.77;;
12758;SDS011;20944;47.048;15.390;2022-11-15T04:47:03;9.03;;;4.40;;
12758;SDS011;20944;47.048;15.390;2022-11-15T04:49:32;9.13;;;5.40;;
12758;SDS011;20944;47.048;15.390;2022-11-15T04:52:00;10.03;;;3.33;;
12758;SDS011;20944;47.048;15.390;2022-11-15T04:54:30;9.07;;;5.43;;
12758;SDS011;20944;47.048;15.390;2022-11-15T04:56:58;7.70;;;4.50;;
12758;SDS011;20944;47.048;15.390;2022-11-15T04:59:26;5.30;;;2.67;;
12758;SDS011;20944;47.048;15.390;2022-11-15T05:01:54;8.00;;;4.43;;
12758;SDS011;20944;47.048;15.390;2022-11-15T05:04:22;9.03;;;4.47;;
12758;SDS011;20944;47.048;15.390;2022-11-15T05:06:50;10.93;;;5.50;;
12758;SDS011;20944;47.048;15.390;2022-11-15T05:09:19;7.70;;;3.67;;
12758;SDS011;20944;47.048;15.390;2022-11-15T05:11:49;7.90;;;4.37;;
12758;SDS011;20944;47.048;15.390;2022-11-15T05:14:18;11.10;;;4.17;;
12758;SDS011;20944;47.048;15.390;2022-11-15T05:16:46;15.10;;;5.47;;
12758;SDS011;20944;47.048;15.390;2022-11-15T05:19:14;15.70;;;6.20;;
12758;SDS011;20944;47.048;15.390;2022-11-15T05:21:42;12.20;;;5.07;;
12758;SDS011;20944;47.048;15.390;2022-11-15T05:24:10;11.83;;;4.47;;
12758;SDS011;20944;47.048;15.390;2022-11-15T05:26:39;10.37;;;5.20;;
12758;SDS011;20944;47.048;15.390;2022-11-15T05:29:09;11.77;;;5.60;;
12758;SDS011;20944;47.048;15.390;2022-11-15T05:31:39;13.17;;;5.83;;
12758;SDS011;20944;47.048;15.390;2022-11-15T05:34:08;10.00;;;5.03;;
12758;SDS011;20944;47.048;15.390;2022-11-15T05:36:38;13.27;;;4.53;;
12758;SDS011;20944;47.048;15.390;2022-11-15T05:39:09;13.10;;;5.87;;
12758;SDS011;20944;47.048;15.390;2022-11-15T05:41:39;11.40;;;5.43;;
12758;SDS011;20944;47.048;15.390;2022-11-15T05:44:11;10.23;;;5.63;;
12758;SDS011;20944;47.048;15.390;2022-11-15T05:46:43;10.30;;;4.10;;
12758;SDS011;20944;47.048;15.390;2022-11-15T05:49:12;16.10;;;6.83;;
12758;SDS011;20944;47.048;15.390;2022-11-15T05:51:45;12.13;;;5.23;;
12758;SDS011;20944;47.048;15.390;2022-11-15T05:54:15;14.03;;;4.90;;
12758;SDS011;20944;47.048;15.390;2022-11-15T05:56:45;12.40;;;4.90;;
12758;SDS011;20944;47.048;15.390;2022-11-15T05:59:15;12.67;;;4.77;;
12758;SDS011;20944;47.048;15.390;2022-11-15T06:01:44;13.23;;;6.00;;
12758;SDS011;20944;47.048;15.390;2022-11-15T06:04:13;12.63;;;6.17;;
12758;SDS011;20944;47.048;15.390;2022-11-15T06:06:41;10.13;;;5.20;;
12758;SDS011;20944;47.048;15.390;2022-11-15T06:09:09;9.83;;;4.23;;
12758;SDS011;20944;47.048;15.390;2022-11-15T06:11:37;15.50;;;5.83;;
12758;SDS011;20944;47.048;15.390;2022-11-15T06:14:05;16.00;;;4.60;;
12758;SDS011;20944;47.048;15.390;2022-11-15T06:16:35;9.87;;;4.90;;
12758;SDS011;20944;47.048;15.390;2022-11-15T06:19:03;9.80;;;5.27;;
12758;SDS011;20944;47.048;15.390;2022-11-15T06:21:33;15.57;;;4.53;;
12758;SDS011;20944;47.048;15.390;2022-11-15T06:24:01;10.83;;;5.40;;
12758;SDS011;20944;47.048;15.390;2022-11-15T06:26:30;15.53;;;5.50;;
12758;SDS011;20944;47.048;15.390;2022-11-15T06:28:58;18.10;;;6.27;;
12758;SDS011;20944;47.048;15.390;2022-11-15T06:31:26;12.43;;;5.20;;
12758;SDS011;20944;47.048;15.390;2022-11-15T06:33:56;11.30;;;5.23;;
12758;SDS011;20944;47.048;15.390;2022-11-15T06:36:24;11.33;;;4.57;;
12758;SDS011;20944;47.048;15.390;2022-11-15T06:38:53;10.10;;;5.10;;
12758;SDS011;20944;47.048;15.390;2022-11-15T06:41:21;13.03;;;4.40;;
12758;SDS011;20944;47.048;15.390;2022-11-15T06:43:49;10.50;;;4.83;;
12758;SDS011;20944;47.048;15.390;2022-11-15T06:46:17;18.23;;;5.77;;
12758;SDS011;20944;47.048;15.390;2022-11-15T06:48:45;11.63;;;5.73;;
12758;SDS011;20944;47.048;15.390;2022-11-15T06:51:15;11.13;;;5.80;;
12758;SDS011;20944;47.048;15.390;2022-11-15T06:53:43;10.33;;;4.40;;
12758;SDS011;20944;47.048;15.390;2022-11-15T06:56:12;9.60;;;4.50;;
12758;SDS011;20944;47.048;15.390;2022-11-15T06:58:40;9.50;;;4.63;;
12758;SDS011;20944;47.048;15.390;2022-11-15T07:01:09;10.93;;;5.13;;
12758;SDS011;20944;47.048;15.390;2022-11-15T07:03:39;10.10;;;6.33;;
12758;SDS011;20944;47.048;15.390;2022-11-15T07:06:09;10.97;;;5.23;;
12758;SDS011;20944;47.048;15.390;2022-11-15T07:08:39;11.37;;;5.10;;
12758;SDS011;20944;47.048;15.390;2022-11-15T07:11:08;11.33;;;3.80;;
12758;SDS011;20944;47.048;15.390;2022-11-15T07:13:36;9.73;;;4.33;;
12758;SDS011;20944;47.048;15.390;2022-11-15T07:16:05;9.33;;;4.80;;
12758;SDS011;20944;47.048;15.390;2022-11-15T07:18:35;18.97;;;4.87;;
12758;SDS011;20944;47.048;15.390;2022-11-15T07:21:04;11.83;;;5.70;;
12758;SDS011;20944;47.048;15.390;2022-11-15T07:23:35;14.17;;;5.17;;
12758;SDS011;20944;47.048;15.390;2022-11-15T07:26:05;15.50;;;5.63;;
12758;SDS011;20944;47.048;15.390;2022-11-15T07:28:35;10.43;;;5.53;;
12758;SDS011;20944;47.048;15.390;2022-11-15T07:31:03;14.00;;;6.90;;
12758;SDS011;20944;47.048;15.390;2022-11-15T07:33:32;9.60;;;4.87;;
12758;SDS011;20944;47.048;15.390;2022-11-15T07:36:01;17.67;;;5.83;;
12758;SDS011;20944;47.048;15.390;2022-11-15T07:38:30;10.97;;;5.33;;
12758;SDS011;20944;47.048;15.390;2022-11-15T07:41:07;10.13;;;4.60;;
12758;SDS011;20944;47.048;15.390;2022-11-15T07:43:36;8.03;;;3.57;;
12758;SDS011;20944;47.048;15.390;2022-11-15T07:46:04;13.00;;;5.90;;
12758;SDS011;20944;47.048;15.390;2022-11-15T07:48:36;12.13;;;6.23;;
12758;SDS011;20944;47.048;15.390;2022-11-15T07:51:10;10.20;;;4.17;;
12758;SDS011;20944;47.048;15.390;2022-11-15T07:53:39;11.70;;;4.17;;
12758;SDS011;20944;47.048;15.390;2022-11-15T07:56:09;20.03;;;6.67;;
12758;SDS011;20944;47.048;15.390;2022-11-15T07:58:38;13.60;;;5.83;;
12758;SDS011;20944;47.048;15.390;2022-11-15T08:01:06;18.03;;;5.13;;
12758;SDS011;20944;47.048;15.390;2022-11-15T08:03:37;14.63;;;5.77;;
12758;SDS011;20944;47.048;15.390;2022-11-15T08:06:05;19.10;;;5.07;;
12758;SDS011;20944;47.048;15.390;2022-11-15T08:08:33;13.87;;;6.03;;
12758;SDS011;20944;47.048;15.390;2022-11-15T08:11:01;12.33;;;5.00;;
12758;SDS011;20944;47.048;15.390;2022-11-15T08:13:31;14.60;;;4.53;;
12758;SDS011;20944;47.048;15.390;2022-11-15T08:16:00;13.67;;;6.20;;
12758;SDS011;20944;47.048;15.390;2022-11-15T08:18:31;9.93;;;3.73;;
12758;SDS011;20944;47.048;15.390;2022-11-15T08:21:00;9.87;;;5.80;;
12758;SDS011;20944;47.048;15.390;2022-11-15T08:23:29;16.03;;;5.43;;
12758;SDS011;20944;47.048;15.390;2022-11-15T08:25:59;11.50;;;3.93;;
12758;SDS011;20944;47.048;15.390;2022-11-15T08:28:30;13.13;;;6.23;;
12758;SDS011;20944;47.048;15.390;2022-11-15T08:30:59;13.40;;;4.57;;
12758;SDS011;20944;47.048;15.390;2022-11-15T08:33:27;10.60;;;4.20;;
12758;SDS011;20944;47.048;15.390;2022-11-15T08:35:56;13.03;;;5.33;;
12758;SDS011;20944;47.048;15.390;2022-11-15T08:38:25;12.63;;;5.50;;
12758;SDS011;20944;47.048;15.390;2022-11-15T08:40:59;14.20;;;5.27;;
12758;SDS011;20944;47.048;15.390;2022-11-15T08:43:28;14.63;;;4.30;;
12758;SDS011;20944;47.048;15.390;2022-11-15T08:45:59;11.83;;;4.73;;
12758;SDS011;20944;47.048;15.390;2022-11-15T08:48:27;11.77;;;4.80;;
12758;SDS011;20944;47.048;15.390;2022-11-15T08:50:56;13.37;;;5.70;;
12758;SDS011;20944;47.048;15.390;2022-11-15T08:53:24;12.93;;;4.73;;
12758;SDS011;20944;47.048;15.390;2022-11-15T08:55:52;13.50;;;5.43;;
12758;SDS011;20944;47.048;15.390;2022-11-15T08:58:21;14.60;;;5.60;;
12758;SDS011;20944;47.048;15.390;2022-11-15T09:00:50;8.33;;;3.90;;
12758;SDS011;20944;47.048;15.390;2022-11-15T09:03:19;7.87;;;4.17;;
12758;SDS011;20944;47.048;15.390;2022-11-15T09:05:47;11.77;;;5.47;;
12758;SDS011;20944;47.048;15.390;2022-11-15T09:08:15;9.53;;;3.23;;
12758;SDS011;20944;47.048;15.390;2022-11-15T09:11:04;16.90;;;5.33;;
12758;SDS011;20944;47.048;15.390;2022-11-15T09:13:33;9.37;;;4.57;;
12758;SDS011;20944;47.048;15.390;2022-11-15T09:16:05;12.33;;;4.37;;
12758;SDS011;20944;47.048;15.390;2022-11-15T09:18:33;7.33;;;4.57;;
12758;SDS011;20944;47.048;15.390;2022-11-15T09:21:02;13.23;;;3.73;;
12758;SDS011;20944;47.048;15.390;2022-11-15T09:23:30;13.17;;;5.47;;
12758;SDS011;20944;47.048;15.390;2022-11-15T09:25:59;11.33;;;5.07;;
12758;SDS011;20944;47.048;15.390;2022-11-15T09:28:29;13.13;;;4.90;;
12758;SDS011;20944;47.048;15.390;2022-11-15T09:31:00;9.67;;;4.30;;
12758;SDS011;20944;47.048;15.390;2022-11-15T09:33:31;10.73;;;5.53;;
12758;SDS011;20944;47.048;15.390;2022-11-15T09:36:00;13.83;;;5.33;;
12758;SDS011;20944;47.048;15.390;2022-11-15T09:38:29;7.23;;;4.23;;
12758;SDS011;20944;47.048;15.390;2022-11-15T09:41:08;14.40;;;3.80;;
12758;SDS011;20944;47.048;15.390;2022-11-15T09:43:50;15.83;;;6.30;;
12758;SDS011;20944;47.048;15.390;2022-11-15T09:46:29;9.07;;;4.00;;
12758;SDS011;20944;47.048;15.390;2022-11-15T09:49:07;11.27;;;4.93;;
12758;SDS011;20944;47.048;15.390;2022-11-15T09:51:38;10.30;;;4.13;;
12758;SDS011;20944;47.048;15.390;2022-11-15T09:54:16;10.60;;;4.17;;
12758;SDS011;20944;47.048;15.390;2022-11-15T09:57:14;14.20;;;5.87;;
12758;SDS011;20944;47.048;15.390;2022-11-15T09:59:48;10.37;;;4.10;;
12758;SDS011;20944;47.048;15.390;2022-11-15T10:02:36;13.00;;;5.60;;
12758;SDS011;20944;47.048;15.390;2022-11-15T10:05:18;16.40;;;6.67;;
12758;SDS011;20944;47.048;15.390;2022-11-15T10:07:50;13.23;;;5.23;;
12758;SDS011;20944;47.048;15.390;2022-11-15T10:10:30;8.87;;;3.60;;
12758;SDS011;20944;47.048;15.390;2022-11-15T10:13:04;14.90;;;5.70;;
12758;SDS011;20944;47.048;15.390;2022-11-15T10:15:32;13.03;;;4.07;;
12758;SDS011;20944;47.048;15.390;2022-11-15T10:18:06;13.60;;;4.07;;
12758;SDS011;20944;47.048;15.390;2022-11-15T10:20:44;10.07;;;5.27;;
12758;SDS011;20944;47.048;15.390;2022-11-15T10:23:16;9.27;;;4.70;;
12758;SDS011;20944;47.048;15.390;2022-11-15T10:25:46;5.73;;;3.63;;
12758;SDS011;20944;47.048;15.390;2022-11-15T10:28:15;13.30;;;4.47;;
12758;SDS011;20944;47.048;15.390;2022-11-15T10:30:49;10.23;;;4.60;;
12758;SDS011;20944;47.048;15.390;2022-11-15T10:33:22;6.17;;;3.83;;
12758;SDS011;20944;47.048;15.390;2022-11-15T10:38:56;8.90;;;3.53;;
12758;SDS011;20944;47.048;15.390;2022-11-15T10:41:32;10.53;;;3.40;;
12758;SDS011;20944;47.048;15.390;2022-11-15T10:49:54;10.43;;;3.23;;
12758;SDS011;20944;47.048;15.390;2022-11-15T10:52:25;5.07;;;3.10;;
12758;SDS011;20944;47.048;15.390;2022-11-15T10:54:55;6.30;;;3.37;;
12758;SDS011;20944;47.048;15.390;2022-11-15T10:57:27;10.07;;;4.10;;
12758;SDS011;20944;47.048;15.390;2022-11-15T10:59:59;6.23;;;3.63;;
12758;SDS011;20944;47.048;15.390;2022-11-15T11:02:31;8.60;;;2.87;;
12758;SDS011;20944;47.048;15.390;2022-11-15T11:05:02;6.20;;;3.03;;
12758;SDS011;20944;47.048;15.390;2022-11-15T11:07:34;5.60;;;2.80;;
12758;SDS011;20944;47.048;15.390;2022-11-15T11:10:04;5.43;;;3.23;;
12758;SDS011;20944;47.048;15.390;2022-11-15T11:13:14;7.17;;;3.00;;
12758;SDS011;20944;47.048;15.390;2022-11-15T11:15:51;8.70;;;4.23;;
12758;SDS011;20944;47.048;15.390;2022-11-15T11:18:28;7.97;;;2.27;;
12758;SDS011;20944;47.048;15.390;2022-11-15T11:21:03;10.23;;;4.20;;
12758;SDS011;20944;47.048;15.390;2022-11-15T11:23:42;9.40;;;3.17;;
12758;SDS011;20944;47.048;15.390;2022-11-15T11:26:29;6.83;;;4.40;;
12758;SDS011;20944;47.048;15.390;2022-11-15T11:29:14;5.90;;;4.20;;
12758;SDS011;20944;47.048;15.390;2022-11-15T11:31:55;8.70;;;3.57;;
12758;SDS011;20944;47.048;15.390;2022-11-15T11:34:34;5.87;;;3.03;;
12758;SDS011;20944;47.048;15.390;2022-11-15T11:37:17;7.97;;;4.73;;
12758;SDS011;20944;47.048;15.390;2022-11-15T11:39:56;6.67;;;3.17;;
12758;SDS011;20944;47.048;15.390;2022-11-15T11:42:41;9.00;;;4.33;;
12758;SDS011;20944;47.048;15.390;2022-11-15T11:45:18;6.63;;;3.50;;
12758;SDS011;20944;47.048;15.390;2022-11-15T11:47:56;12.57;;;4.37;;
12758;SDS011;20944;47.048;15.390;2022-11-15T11:50:30;8.30;;;4.43;;
12758;SDS011;20944;47.048;15.390;2022-11-15T11:53:03;11.73;;;4.17;;
12758;SDS011;20944;47.048;15.390;2022-11-15T11:55:40;8.33;;;3.43;;
12758;SDS011;20944;47.048;15.390;2022-11-15T11:58:14;9.37;;;4.33;;
12758;SDS011;20944;47.048;15.390;2022-11-15T12:00:45;7.83;;;2.73;;
12758;SDS011;20944;47.048;15.390;2022-11-15T12:03:19;6.87;;;3.20;;
12758;SDS011;20944;47.048;15.390;2022-11-15T12:05:56;6.90;;;4.17;;
12758;SDS011;20944;47.048;15.390;2022-11-15T12:08:31;5.93;;;3.53;;
12758;SDS011;20944;47.048;15.390;2022-11-15T12:11:10;6.63;;;3.83;;
12758;SDS011;20944;47.048;15.390;2022-11-15T12:13:41;8.03;;;3.70;;
12758;SDS011;20944;47.048;15.390;2022-11-15T12:16:12;8.90;;;4.20;;
12758;SDS011;20944;47.048;15.390;2022-11-15T12:18:44;4.60;;;2.60;;
12758;SDS011;20944;47.048;15.390;2022-11-15T12:21:16;9.83;;;3.70;;
12758;SDS011;20944;47.048;15.390;2022-11-15T12:23:55;7.90;;;3.20;;
12758;SDS011;20944;47.048;15.390;2022-11-15T12:26:32;5.77;;;2.73;;
12758;SDS011;20944;47.048;15.390;2022-11-15T12:29:05;7.80;;;3.20;;
12758;SDS011;20944;47.048;15.390;2022-11-15T12:31:41;7.13;;;3.07;;
12758;SDS011;20944;47.048;15.390;2022-11-15T12:34:28;9.70;;;3.87;;
12758;SDS011;20944;47.048;15.390;2022-11-15T12:37:06;7.67;;;3.03;;
12758;SDS011;20944;47.048;15.390;2022-11-15T12:40:28;8.83;;;4.07;;
12758;SDS011;20944;47.048;15.390;2022-11-15T12:46:03;8.23;;;3.63;;
12758;SDS011;20944;47.048;15.390;2022-11-15T12:48:47;9.63;;;3.50;;
12758;SDS011;20944;47.048;15.390;2022-11-15T12:51:19;9.10;;;3.30;;
12758;SDS011;20944;47.048;15.390;2022-11-15T12:53:48;6.37;;;3.83;;
12758;SDS011;20944;47.048;15.390;2022-11-15T12:56:20;9.43;;;3.70;;
12758;SDS011;20944;47.048;15.390;2022-11-15T12:58:51;4.73;;;2.83;;
12758;SDS011;20944;47.048;15.390;2022-11-15T13:04:35;8.73;;;4.00;;
12758;SDS011;20944;47.048;15.390;2022-11-15T13:07:04;9.07;;;3.63;;
12758;SDS011;20944;47.048;15.390;2022-11-15T13:09:50;6.53;;;2.97;;
12758;SDS011;20944;47.048;15.390;2022-11-15T13:18:34;7.27;;;2.43;;
12758;SDS011;20944;47.048;15.390;2022-11-15T13:21:16;4.67;;;3.03;;
12758;SDS011;20944;47.048;15.390;2022-11-15T13:24:09;8.53;;;3.23;;
12758;SDS011;20944;47.048;15.390;2022-11-15T13:26:40;7.77;;;3.97;;
12758;SDS011;20944;47.048;15.390;2022-11-15T13:29:14;6.03;;;2.90;;
12758;SDS011;20944;47.048;15.390;2022-11-15T13:31:44;4.67;;;3.17;;
12758;SDS011;20944;47.048;15.390;2022-11-15T13:34:28;5.47;;;2.17;;
12758;SDS011;20944;47.048;15.390;2022-11-15T13:37:27;3.93;;;1.80;;
12758;SDS011;20944;47.048;15.390;2022-11-15T13:40:10;6.77;;;2.20;;
12758;SDS011;20944;47.048;15.390;2022-11-15T13:42:46;9.40;;;3.27;;
12758;SDS011;20944;47.048;15.390;2022-11-15T13:45:15;8.17;;;2.37;;
12758;SDS011;20944;47.048;15.390;2022-11-15T13:47:50;5.83;;;2.90;;
12758;SDS011;20944;47.048;15.390;2022-11-15T13:50:22;5.70;;;2.97;;
12758;SDS011;20944;47.048;15.390;2022-11-15T13:52:53;6.53;;;2.53;;
12758;SDS011;20944;47.048;15.390;2022-11-15T13:55:25;8.57;;;2.67;;
12758;SDS011;20944;47.048;15.390;2022-11-15T13:57:55;6.40;;;2.90;;
12758;SDS011;20944;47.048;15.390;2022-11-15T14:00:28;6.27;;;2.83;;
12758;SDS011;20944;47.048;15.390;2022-11-15T14:03:08;7.70;;;3.03;;
12758;SDS011;20944;47.048;15.390;2022-11-15T14:05:44;7.60;;;3.53;;
12758;SDS011;20944;47.048;15.390;2022-11-15T14:08:29;4.10;;;2.03;;
12758;SDS011;20944;47.048;15.390;2022-11-15T14:11:08;7.63;;;4.13;;
12758;SDS011;20944;47.048;15.390;2022-11-15T14:13:40;4.17;;;2.33;;
12758;SDS011;20944;47.048;15.390;2022-11-15T14:16:12;8.13;;;3.23;;
12758;SDS011;20944;47.048;15.390;2022-11-15T14:18:46;6.13;;;2.83;;
12758;SDS011;20944;47.048;15.390;2022-11-15T14:21:17;6.17;;;3.50;;
12758;SDS011;20944;47.048;15.390;2022-11-15T14:23:46;6.63;;;2.87;;
12758;SDS011;20944;47.048;15.390;2022-11-15T14:26:26;7.40;;;2.63;;
12758;SDS011;20944;47.048;15.390;2022-11-15T14:28:56;8.33;;;3.07;;
12758;SDS011;20944;47.048;15.390;2022-11-15T14:31:24;7.83;;;3.13;;
12758;SDS011;20944;47.048;15.390;2022-11-15T14:33:52;3.03;;;2.23;;
12758;SDS011;20944;47.048;15.390;2022-11-15T14:36:22;3.30;;;2.43;;
12758;SDS011;20944;47.048;15.390;2022-11-15T14:38:50;4.57;;;2.23;;
12758;SDS011;20944;47.048;15.390;2022-11-15T14:41:21;5.57;;;2.40;;
12758;SDS011;20944;47.048;15.390;2022-11-15T14:43:50;6.87;;;2.87;;
12758;SDS011;20944;47.048;15.390;2022-11-15T14:46:19;5.17;;;2.23;;
12758;SDS011;20944;47.048;15.390;2022-11-15T14:48:48;8.67;;;2.77;;
12758;SDS011;20944;47.048;15.390;2022-11-15T14:51:16;7.67;;;2.37;;
12758;SDS011;20944;47.048;15.390;2022-11-15T14:53:47;7.13;;;2.77;;
12758;SDS011;20944;47.048;15.390;2022-11-15T14:56:16;4.70;;;2.67;;
12758;SDS011;20944;47.048;15.390;2022-11-15T14:58:44;3.70;;;1.97;;
12758;SDS011;20944;47.048;15.390;2022-11-15T15:01:13;10.10;;;3.27;;
12758;SDS011;20944;47.048;15.390;2022-11-15T15:03:44;7.37;;;2.03;;
12758;SDS011;20944;47.048;15.390;2022-11-15T15:06:12;6.50;;;2.33;;
12758;SDS011;20944;47.048;15.390;2022-11-15T15:08:43;5.20;;;2.37;;
12758;SDS011;20944;47.048;15.390;2022-11-15T15:11:14;4.37;;;2.30;;
12758;SDS011;20944;47.048;15.390;2022-11-15T15:13:44;5.73;;;2.60;;
12758;SDS011;20944;47.048;15.390;2022-11-15T15:16:12;5.37;;;2.50;;
12758;SDS011;20944;47.048;15.390;2022-11-15T15:18:40;5.27;;;2.47;;
12758;SDS011;20944;47.048;15.390;2022-11-15T15:21:16;7.93;;;3.00;;
12758;SDS011;20944;47.048;15.390;2022-11-15T15:23:48;8.73;;;4.00;;